sensor_id;sensor_type;location;lat;lon;timestamp;pressure;altitude;pressure_sealevel;temperature;humidity
23164;BME280;31429;42.674;23.350;2023-04-12T00:00:05;93887.94;;;10.26;100.00
23164;BME280;31429;42.674;23.350;2023-04-12T00:01:12;93894.63;;;10.29;100.00
23164;BME280;31429;42.674;23.350;2023-04-12T00:02:13;93891.25;;;10.28;100.00
23164;BME280;31429;42.674;23.350;2023-04-12T00:03:14;93895.75;;;10.41;100.00
23164;BME280;31429;42.674;23.350;2023-04-12T00:04:20;93890.34;;;10.29;100.00
23164;BME280;31429;42.674;23.350;2023-04-12T00:05:22;93889.41;;;10.48;100.00
23164;BME280;31429;42.674;23.350;2023-04-12T00:06:26;93891.69;;;10.36;100.00
23164;BME280;31429;42.674;23.350;2023-04-12T00:07:31;93882.44;;;10.34;100.00
23164;BME280;31429;42.674;23.350;2023-04-12T00:08:32;93886.75;;;10.16;100.00
23164;BME280;31429;42.674;23.350;2023-04-12T00:09:34;93887.00;;;10.45;100.00
23164;BME280;31429;42.674;23.350;2023-04-12T00:10:37;93884.31;;;10.30;100.00
23164;BME280;31429;42.674;23.350;2023-04-12T00:11:37;93879.97;;;10.32;100.00
23164;BME280;31429;42.674;23.350;2023-04-12T00:12:38;93885.69;;;10.53;100.00
23164;BME280;31429;42.674;23.350;2023-04-12T00:13:40;93884.41;;;10.62;100.00
23164;BME280;31429;42.674;23.350;2023-04-12T00:14:40;93880.63;;;10.69;100.00
23164;BME280;31429;42.674;23.350;2023-04-12T00:15:41;93882.34;;;10.68;100.00
23164;BME280;31429;42.674;23.350;2023-04-12T00:16:42;93880.47;;;10.39;100.00
23164;BME280;31429;42.674;23.350;2023-04-12T00:17:43;93881.97;;;10.43;100.00
23164;BME280;31429;42.674;23.350;2023-04-12T00:18:44;93878.47;;;10.28;100.00
23164;BME280;31429;42.674;23.350;2023-04-12T00:19:46;93885.16;;;10.31;100.00
23164;BME280;31429;42.674;23.350;2023-04-12T00:20:47;93870.66;;;10.31;100.00
23164;BME280;31429;42.674;23.350;2023-04-12T00:21:47;93880.13;;;10.29;100.00
23164;BME280;31429;42.674;23.350;2023-04-12T00:22:48;93871.06;;;10.24;100.00
23164;BME280;31429;42.674;23.350;2023-04-12T00:23:48;93882.38;;;10.01;100.00
23164;BME280;31429;42.674;23.350;2023-04-12T00:24:49;93875.03;;;9.95;100.00
23164;BME280;31429;42.674;23.350;2023-04-12T00:25:51;93870.66;;;10.31;100.00
23164;BME280;31429;42.674;23.350;2023-04-12T00:26:52;93871.13;;;10.22;100.00
23164;BME280;31429;42.674;23.350;2023-04-12T00:27:53;93878.34;;;10.14;100.00
23164;BME280;31429;42.674;23.350;2023-04-12T00:28:53;93872.25;;;10.17;100.00
23164;BME280;31429;42.674;23.350;2023-04-12T00:29:54;93866.00;;;10.05;100.00
23164;BME280;31429;42.674;23.350;2023-04-12T00:30:55;93873.97;;;10.16;100.00
23164;BME280;31429;42.674;23.350;2023-04-12T00:31:56;93870.78;;;10.11;100.00
23164;BME280;31429;42.674;23.350;2023-04-12T00:32:57;93871.47;;;10.32;100.00
23164;BME280;31429;42.674;23.350;2023-04-12T00:33:57;93871.69;;;10.27;100.00
23164;BME280;31429;42.674;23.350;2023-04-12T00:34:58;93876.63;;;10.15;100.00
23164;BME280;31429;42.674;23.350;2023-04-12T00:35:59;93879.69;;;10.04;100.00
23164;BME280;31429;42.674;23.350;2023-04-12T00:37:00;93875.56;;;10.02;100.00
23164;BME280;31429;42.674;23.350;2023-04-12T00:38:01;93872.19;;;10.18;100.00
23164;BME280;31429;42.674;23.350;2023-04-12T00:39:09;93870.94;;;10.08;100.00
23164;BME280;31429;42.674;23.350;2023-04-12T00:40:11;93874.66;;;10.20;100.00
23164;BME280;31429;42.674;23.350;2023-04-12T00:41:13;93874.91;;;10.15;100.00
23164;BME280;31429;42.674;23.350;2023-04-12T00:42:14;93868.94;;;10.15;100.00
23164;BME280;31429;42.674;23.350;2023-04-12T00:43:14;93879.22;;;10.13;100.00
23164;BME280;31429;42.674;23.350;2023-04-12T00:44:18;93868.09;;;9.97;100.00
23164;BME280;31429;42.674;23.350;2023-04-12T00:45:18;93870.78;;;10.13;100.00
23164;BME280;31429;42.674;23.350;2023-04-12T00:46:20;93877.19;;;10.03;100.00
23164;BME280;31429;42.674;23.350;2023-04-12T00:47:21;93871.69;;;10.10;100.00
23164;BME280;31429;42.674;23.350;2023-04-12T00:48:22;93869.97;;;10.11;100.00
23164;BME280;31429;42.674;23.350;2023-04-12T00:49:23;93865.25;;;10.20;100.00
23164;BME280;31429;42.674;23.350;2023-04-12T00:50:29;93863.09;;;10.13;100.00
23164;BME280;31429;42.674;23.350;2023-04-12T00:51:31;93870.38;;;10.20;100.00
23164;BME280;31429;42.674;23.350;2023-04-12T00:52:32;93868.13;;;10.14;100.00
23164;BME280;31429;42.674;23.350;2023-04-12T00:53:34;93868.81;;;10.18;100.00
23164;BME280;31429;42.674;23.350;2023-04-12T00:54:35;93872.38;;;10.31;100.00
23164;BME280;31429;42.674;23.350;2023-04-12T00:55:36;93866.59;;;10.27;100.00
23164;BME280;31429;42.674;23.350;2023-04-12T00:56:39;93860.00;;;10.23;100.00
23164;BME280;31429;42.674;23.350;2023-04-12T00:57:40;93859.19;;;10.23;100.00
23164;BME280;31429;42.674;23.350;2023-04-12T00:58:41;93869.81;;;10.31;100.00
23164;BME280;31429;42.674;23.350;2023-04-12T00:59:41;93868.50;;;10.24;100.00
23164;BME280;31429;42.674;23.350;2023-04-12T01:00:42;93858.47;;;10.36;100.00
23164;BME280;31429;42.674;23.350;2023-04-12T01:01:49;93856.03;;;10.18;100.00
23164;BME280;31429;42.674;23.350;2023-04-12T01:02:50;93858.03;;;10.11;100.00
23164;BME280;31429;42.674;23.350;2023-04-12T01:03:52;93852.03;;;10.12;100.00
23164;BME280;31429;42.674;23.350;2023-04-12T01:04:53;93854.53;;;10.14;100.00
23164;BME280;31429;42.674;23.350;2023-04-12T01:06:03;93850.19;;;10.16;100.00
23164;BME280;31429;42.674;23.350;2023-04-12T01:07:15;93861.16;;;10.33;100.00
23164;BME280;31429;42.674;23.350;2023-04-12T01:08:24;93854.28;;;10.35;100.00
23164;BME280;31429;42.674;23.350;2023-04-12T01:09:32;93853.06;;;10.08;100.00
23164;BME280;31429;42.674;23.350;2023-04-12T01:10:42;93853.91;;;10.09;100.00
23164;BME280;31429;42.674;23.350;2023-04-12T01:11:50;93866.25;;;10.18;100.00
23164;BME280;31429;42.674;23.350;2023-04-12T01:13:02;93857.13;;;10.29;100.00
23164;BME280;31429;42.674;23.350;2023-04-12T01:14:08;93858.03;;;10.28;100.00
23164;BME280;31429;42.674;23.350;2023-04-12T01:15:12;93858.63;;;10.33;100.00
23164;BME280;31429;42.674;23.350;2023-04-12T01:16:18;93860.38;;;10.33;100.00
23164;BME280;31429;42.674;23.350;2023-04-12T01:17:27;93861.28;;;10.48;100.00
23164;BME280;31429;42.674;23.350;2023-04-12T01:18:32;93862.22;;;10.47;100.00
23164;BME280;31429;42.674;23.350;2023-04-12T01:19:50;93858.66;;;10.49;100.00
23164;BME280;31429;42.674;23.350;2023-04-12T01:20:58;93858.75;;;10.15;100.00
23164;BME280;31429;42.674;23.350;2023-04-12T01:22:09;93855.31;;;10.31;100.00
23164;BME280;31429;42.674;23.350;2023-04-12T01:23:20;93857.97;;;10.30;100.00
23164;BME280;31429;42.674;23.350;2023-04-12T01:24:36;93860.69;;;10.27;100.00
23164;BME280;31429;42.674;23.350;2023-04-12T01:25:54;93853.38;;;10.19;100.00
23164;BME280;31429;42.674;23.350;2023-04-12T01:26:59;93855.72;;;10.24;100.00
23164;BME280;31429;42.674;23.350;2023-04-12T01:28:04;93845.50;;;10.07;100.00
23164;BME280;31429;42.674;23.350;2023-04-12T01:29:08;93854.66;;;10.11;100.00
23164;BME280;31429;42.674;23.350;2023-04-12T01:30:11;93852.25;;;10.25;100.00
23164;BME280;31429;42.674;23.350;2023-04-12T01:31:14;93854.28;;;10.35;100.00
23164;BME280;31429;42.674;23.350;2023-04-12T01:32:15;93858.88;;;10.29;100.00
23164;BME280;31429;42.674;23.350;2023-04-12T01:33:17;93853.94;;;10.42;100.00
23164;BME280;31429;42.674;23.350;2023-04-12T01:34:21;93850.94;;;10.33;100.00
23164;BME280;31429;42.674;23.350;2023-04-12T01:35:26;93850.00;;;10.19;100.00
23164;BME280;31429;42.674;23.350;2023-04-12T01:36:28;93850.09;;;10.00;100.00
23164;BME280;31429;42.674;23.350;2023-04-12T01:37:30;93845.13;;;9.97;100.00
23164;BME280;31429;42.674;23.350;2023-04-12T01:38:31;93843.84;;;9.89;100.00
23164;BME280;31429;42.674;23.350;2023-04-12T01:39:32;93837.78;;;9.74;100.00
23164;BME280;31429;42.674;23.350;2023-04-12T01:40:34;93859.13;;;9.73;100.00
23164;BME280;31429;42.674;23.350;2023-04-12T01:41:38;93847.38;;;10.03;100.00
23164;BME280;31429;42.674;23.350;2023-04-12T01:42:39;93850.81;;;10.02;100.00
23164;BME280;31429;42.674;23.350;2023-04-12T01:43:43;93854.47;;;10.15;100.00
23164;BME280;31429;42.674;23.350;2023-04-12T01:44:43;93847.97;;;9.91;100.00
23164;BME280;31429;42.674;23.350;2023-04-12T01:45:44;93849.78;;;10.06;100.00
23164;BME280;31429;42.674;23.350;2023-04-12T01:46:46;93848.78;;;10.09;100.00
23164;BME280;31429;42.674;23.350;2023-04-12T01:47:47;93847.81;;;10.11;100.00
23164;BME280;31429;42.674;23.350;2023-04-12T01:48:50;93844.59;;;10.25;100.00
23164;BME280;31429;42.674;23.350;2023-04-12T01:49:56;93846.50;;;10.21;100.00
23164;BME280;31429;42.674;23.350;2023-04-12T01:51:04;93847.53;;;10.17;100.00
23164;BME280;31429;42.674;23.350;2023-04-12T01:52:08;93851.97;;;10.14;100.00
23164;BME280;31429;42.674;23.350;2023-04-12T01:53:15;93848.06;;;10.24;100.00
23164;BME280;31429;42.674;23.350;2023-04-12T01:54:20;93847.13;;;10.25;100.00
23164;BME280;31429;42.674;23.350;2023-04-12T01:55:22;93845.25;;;10.28;100.00
23164;BME280;31429;42.674;23.350;2023-04-12T01:56:29;93839.69;;;10.37;100.00
23164;BME280;31429;42.674;23.350;2023-04-12T01:57:32;93842.25;;;10.37;100.00
23164;BME280;31429;42.674;23.350;2023-04-12T01:58:33;93844.25;;;10.15;100.00
23164;BME280;31429;42.674;23.350;2023-04-12T01:59:39;93834.22;;;9.94;100.00
23164;BME280;31429;42.674;23.350;2023-04-12T02:00:40;93848.69;;;10.10;100.00
23164;BME280;31429;42.674;23.350;2023-04-12T02:01:44;93838.75;;;9.89;100.00
23164;BME280;31429;42.674;23.350;2023-04-12T02:02:46;93839.97;;;9.99;100.00
23164;BME280;31429;42.674;23.350;2023-04-12T02:03:47;93837.13;;;10.37;100.00
23164;BME280;31429;42.674;23.350;2023-04-12T02:04:50;93839.25;;;10.12;100.00
23164;BME280;31429;42.674;23.350;2023-04-12T02:05:52;93839.88;;;10.17;100.00
23164;BME280;31429;42.674;23.350;2023-04-12T02:06:53;93833.09;;;9.99;100.00
23164;BME280;31429;42.674;23.350;2023-04-12T02:07:53;93841.59;;;10.17;100.00
23164;BME280;31429;42.674;23.350;2023-04-12T02:08:57;93837.00;;;10.06;100.00
23164;BME280;31429;42.674;23.350;2023-04-12T02:09:58;93846.97;;;10.11;100.00
23164;BME280;31429;42.674;23.350;2023-04-12T02:10:58;93839.56;;;10.06;100.00
23164;BME280;31429;42.674;23.350;2023-04-12T02:11:59;93835.53;;;9.85;100.00
23164;BME280;31429;42.674;23.350;2023-04-12T02:13:01;93841.69;;;9.98;100.00
23164;BME280;31429;42.674;23.350;2023-04-12T02:14:01;93837.41;;;9.81;100.00
23164;BME280;31429;42.674;23.350;2023-04-12T02:15:04;93838.31;;;9.80;100.00
23164;BME280;31429;42.674;23.350;2023-04-12T02:16:07;93841.16;;;9.92;100.00
23164;BME280;31429;42.674;23.350;2023-04-12T02:17:10;93831.09;;;9.71;100.00
23164;BME280;31429;42.674;23.350;2023-04-12T02:18:12;93832.31;;;9.64;100.00
23164;BME280;31429;42.674;23.350;2023-04-12T02:19:13;93838.31;;;9.80;100.00
23164;BME280;31429;42.674;23.350;2023-04-12T02:20:14;93833.19;;;9.98;100.00
23164;BME280;31429;42.674;23.350;2023-04-12T02:21:17;93842.34;;;10.19;100.00
23164;BME280;31429;42.674;23.350;2023-04-12T02:22:18;93840.25;;;10.10;100.00
23164;BME280;31429;42.674;23.350;2023-04-12T02:23:18;93827.41;;;9.94;100.00
23164;BME280;31429;42.674;23.350;2023-04-12T02:24:19;93832.66;;;10.08;100.00
23164;BME280;31429;42.674;23.350;2023-04-12T02:25:20;93836.72;;;10.12;100.00
23164;BME280;31429;42.674;23.350;2023-04-12T02:26:20;93831.44;;;10.32;100.00
23164;BME280;31429;42.674;23.350;2023-04-12T02:27:22;93840.66;;;10.35;100.00
23164;BME280;31429;42.674;23.350;2023-04-12T02:28:23;93838.06;;;10.19;100.00
23164;BME280;31429;42.674;23.350;2023-04-12T02:29:24;93837.31;;;10.00;100.00
23164;BME280;31429;42.674;23.350;2023-04-12T02:30:26;93832.97;;;10.19;100.00
23164;BME280;31429;42.674;23.350;2023-04-12T02:31:27;93838.38;;;10.46;100.00
23164;BME280;31429;42.674;23.350;2023-04-12T02:32:27;93837.41;;;10.16;100.00
23164;BME280;31429;42.674;23.350;2023-04-12T02:33:30;93835.06;;;9.94;100.00
23164;BME280;31429;42.674;23.350;2023-04-12T02:34:30;93834.47;;;10.06;100.00
23164;BME280;31429;42.674;23.350;2023-04-12T02:35:37;93841.31;;;9.89;100.00
23164;BME280;31429;42.674;23.350;2023-04-12T02:36:38;93846.09;;;9.95;100.00
23164;BME280;31429;42.674;23.350;2023-04-12T02:37:39;93839.44;;;9.92;100.00
23164;BME280;31429;42.674;23.350;2023-04-12T02:38:39;93835.66;;;9.99;100.00
23164;BME280;31429;42.674;23.350;2023-04-12T02:39:40;93836.03;;;9.92;100.00
23164;BME280;31429;42.674;23.350;2023-04-12T02:40:41;93829.50;;;10.03;100.00
23164;BME280;31429;42.674;23.350;2023-04-12T02:41:42;93840.13;;;9.96;100.00
23164;BME280;31429;42.674;23.350;2023-04-12T02:42:42;93837.03;;;9.89;100.00
23164;BME280;31429;42.674;23.350;2023-04-12T02:43:43;93829.44;;;9.88;100.00
23164;BME280;31429;42.674;23.350;2023-04-12T02:44:44;93831.94;;;9.72;100.00
23164;BME280;31429;42.674;23.350;2023-04-12T02:45:48;93832.06;;;10.03;100.00
23164;BME280;31429;42.674;23.350;2023-04-12T02:46:49;93830.03;;;10.10;100.00
23164;BME280;31429;42.674;23.350;2023-04-12T02:47:50;93822.69;;;10.21;100.00
23164;BME280;31429;42.674;23.350;2023-04-12T02:48:50;93833.19;;;9.98;100.00
23164;BME280;31429;42.674;23.350;2023-04-12T02:49:51;93824.41;;;10.03;100.00
23164;BME280;31429;42.674;23.350;2023-04-12T02:50:51;93821.41;;;9.95;100.00
23164;BME280;31429;42.674;23.350;2023-04-12T02:51:52;93826.56;;;9.94;100.00
23164;BME280;31429;42.674;23.350;2023-04-12T02:52:53;93824.19;;;9.91;100.00
23164;BME280;31429;42.674;23.350;2023-04-12T02:53:53;93823.69;;;9.84;100.00
23164;BME280;31429;42.674;23.350;2023-04-12T02:54:55;93827.72;;;9.71;100.00
23164;BME280;31429;42.674;23.350;2023-04-12T02:55:56;93832.97;;;9.51;100.00
23164;BME280;31429;42.674;23.350;2023-04-12T02:57:00;93825.69;;;9.60;100.00
23164;BME280;31429;42.674;23.350;2023-04-12T02:58:01;93827.06;;;9.50;100.00
23164;BME280;31429;42.674;23.350;2023-04-12T02:59:02;93830.66;;;9.63;100.00
23164;BME280;31429;42.674;23.350;2023-04-12T03:00:03;93823.59;;;9.68;100.00
23164;BME280;31429;42.674;23.350;2023-04-12T03:01:12;93827.28;;;9.63;100.00
23164;BME280;31429;42.674;23.350;2023-04-12T03:02:13;93830.28;;;9.71;100.00
23164;BME280;31429;42.674;23.350;2023-04-12T03:03:14;93820.53;;;9.62;100.00
23164;BME280;31429;42.674;23.350;2023-04-12T03:04:17;93821.56;;;9.92;100.00
23164;BME280;31429;42.674;23.350;2023-04-12T03:05:17;93826.53;;;9.78;100.00
23164;BME280;31429;42.674;23.350;2023-04-12T03:06:18;93828.41;;;9.57;100.00
23164;BME280;31429;42.674;23.350;2023-04-12T03:07:21;93820.84;;;9.73;100.00
23164;BME280;31429;42.674;23.350;2023-04-12T03:08:21;93830.34;;;9.52;100.00
23164;BME280;31429;42.674;23.350;2023-04-12T03:09:22;93826.91;;;9.70;100.00
23164;BME280;31429;42.674;23.350;2023-04-12T03:10:23;93825.09;;;9.72;100.00
23164;BME280;31429;42.674;23.350;2023-04-12T03:11:23;93825.31;;;9.51;100.00
23164;BME280;31429;42.674;23.350;2023-04-12T03:12:24;93823.16;;;9.60;100.00
23164;BME280;31429;42.674;23.350;2023-04-12T03:13:25;93821.56;;;9.75;100.00
23164;BME280;31429;42.674;23.350;2023-04-12T03:14:25;93819.31;;;9.69;100.00
23164;BME280;31429;42.674;23.350;2023-04-12T03:15:26;93822.63;;;9.71;100.00
23164;BME280;31429;42.674;23.350;2023-04-12T03:16:28;93818.56;;;9.84;100.00
23164;BME280;31429;42.674;23.350;2023-04-12T03:17:29;93824.50;;;9.85;100.00
23164;BME280;31429;42.674;23.350;2023-04-12T03:18:30;93827.69;;;10.05;100.00
23164;BME280;31429;42.674;23.350;2023-04-12T03:19:31;93828.09;;;9.98;100.00
23164;BME280;31429;42.674;23.350;2023-04-12T03:20:34;93819.28;;;10.03;100.00
23164;BME280;31429;42.674;23.350;2023-04-12T03:21:35;93823.38;;;9.90;100.00
23164;BME280;31429;42.674;23.350;2023-04-12T03:22:36;93832.81;;;9.88;100.00
23164;BME280;31429;42.674;23.350;2023-04-12T03:23:37;93830.72;;;10.13;100.00
23164;BME280;31429;42.674;23.350;2023-04-12T03:24:38;93836.47;;;10.34;100.00
23164;BME280;31429;42.674;23.350;2023-04-12T03:25:42;93829.66;;;10.17;100.00
23164;BME280;31429;42.674;23.350;2023-04-12T03:26:43;93832.13;;;10.19;100.00
23164;BME280;31429;42.674;23.350;2023-04-12T03:27:44;93828.16;;;10.13;100.00
23164;BME280;31429;42.674;23.350;2023-04-12T03:28:45;93831.75;;;10.09;100.00
23164;BME280;31429;42.674;23.350;2023-04-12T03:29:45;93829.09;;;10.11;100.00
23164;BME280;31429;42.674;23.350;2023-04-12T03:30:46;93823.28;;;9.92;100.00
23164;BME280;31429;42.674;23.350;2023-04-12T03:31:49;93827.28;;;9.80;100.00
23164;BME280;31429;42.674;23.350;2023-04-12T03:32:49;93827.22;;;9.81;100.00
23164;BME280;31429;42.674;23.350;2023-04-12T03:33:50;93826.13;;;9.86;100.00
23164;BME280;31429;42.674;23.350;2023-04-12T03:34:51;93823.69;;;9.84;100.00
23164;BME280;31429;42.674;23.350;2023-04-12T03:35:51;93829.13;;;9.94;100.00
23164;BME280;31429;42.674;23.350;2023-04-12T03:36:52;93830.13;;;9.91;100.00
23164;BME280;31429;42.674;23.350;2023-04-12T03:37:53;93827.41;;;9.94;100.00
23164;BME280;31429;42.674;23.350;2023-04-12T03:38:54;93830.81;;;9.60;100.00
23164;BME280;31429;42.674;23.350;2023-04-12T03:39:55;93817.94;;;9.96;100.00
23164;BME280;31429;42.674;23.350;2023-04-12T03:40:55;93824.84;;;9.94;100.00
23164;BME280;31429;42.674;23.350;2023-04-12T03:41:56;93828.25;;;9.95;100.00
23164;BME280;31429;42.674;23.350;2023-04-12T03:42:56;93823.34;;;10.24;100.00
23164;BME280;31429;42.674;23.350;2023-04-12T03:43:57;93837.75;;;10.25;100.00
23164;BME280;31429;42.674;23.350;2023-04-12T03:44:58;93826.13;;;10.20;100.00
23164;BME280;31429;42.674;23.350;2023-04-12T03:45:58;93830.78;;;10.12;100.00
23164;BME280;31429;42.674;23.350;2023-04-12T03:47:00;93832.81;;;10.22;100.00
23164;BME280;31429;42.674;23.350;2023-04-12T03:48:01;93838.06;;;10.19;100.00
23164;BME280;31429;42.674;23.350;2023-04-12T03:49:02;93827.19;;;10.16;100.00
23164;BME280;31429;42.674;23.350;2023-04-12T03:50:05;93826.53;;;10.61;100.00
23164;BME280;31429;42.674;23.350;2023-04-12T03:51:06;93833.47;;;10.74;100.00
23164;BME280;31429;42.674;23.350;2023-04-12T03:52:11;93835.19;;;10.74;100.00
23164;BME280;31429;42.674;23.350;2023-04-12T03:53:12;93836.09;;;10.73;100.00
23164;BME280;31429;42.674;23.350;2023-04-12T03:54:13;93833.31;;;10.93;100.00
23164;BME280;31429;42.674;23.350;2023-04-12T03:55:13;93821.44;;;10.61;100.00
23164;BME280;31429;42.674;23.350;2023-04-12T03:56:17;93837.56;;;10.46;100.00
23164;BME280;31429;42.674;23.350;2023-04-12T03:57:20;93836.56;;;10.32;100.00
23164;BME280;31429;42.674;23.350;2023-04-12T03:58:20;93846.00;;;10.30;100.00
23164;BME280;31429;42.674;23.350;2023-04-12T03:59:21;93845.19;;;10.30;100.00
23164;BME280;31429;42.674;23.350;2023-04-12T04:00:22;93842.50;;;9.99;100.00
23164;BME280;31429;42.674;23.350;2023-04-12T04:01:22;93832.38;;;9.97;100.00
23164;BME280;31429;42.674;23.350;2023-04-12T04:02:25;93840.75;;;10.33;100.00
23164;BME280;31429;42.674;23.350;2023-04-12T04:03:26;93838.78;;;10.38;100.00
23164;BME280;31429;42.674;23.350;2023-04-12T04:04:28;93841.22;;;10.07;100.00
23164;BME280;31429;42.674;23.350;2023-04-12T04:05:29;93833.38;;;10.10;100.00
23164;BME280;31429;42.674;23.350;2023-04-12T04:06:30;93846.94;;;10.29;100.00
23164;BME280;31429;42.674;23.350;2023-04-12T04:07:31;93842.88;;;10.25;100.00
23164;BME280;31429;42.674;23.350;2023-04-12T04:08:32;93843.81;;;10.40;100.00
23164;BME280;31429;42.674;23.350;2023-04-12T04:09:33;93849.75;;;10.56;100.00
23164;BME280;31429;42.674;23.350;2023-04-12T04:10:33;93841.69;;;10.48;100.00
23164;BME280;31429;42.674;23.350;2023-04-12T04:11:34;93849.78;;;10.23;100.00
23164;BME280;31429;42.674;23.350;2023-04-12T04:12:35;93846.97;;;10.11;100.00
23164;BME280;31429;42.674;23.350;2023-04-12T04:13:36;93842.41;;;10.00;100.00
23164;BME280;31429;42.674;23.350;2023-04-12T04:14:36;93839.31;;;10.11;100.00
23164;BME280;31429;42.674;23.350;2023-04-12T04:15:37;93842.81;;;10.43;100.00
23164;BME280;31429;42.674;23.350;2023-04-12T04:16:38;93846.16;;;10.60;100.00
23164;BME280;31429;42.674;23.350;2023-04-12T04:17:39;93854.47;;;10.15;100.00
23164;BME280;31429;42.674;23.350;2023-04-12T04:18:42;93859.59;;;10.31;100.00
23164;BME280;31429;42.674;23.350;2023-04-12T04:19:43;93858.94;;;10.27;100.00
23164;BME280;31429;42.674;23.350;2023-04-12T04:20:43;93870.50;;;10.34;100.00
23164;BME280;31429;42.674;23.350;2023-04-12T04:21:44;93847.63;;;10.16;100.00
23164;BME280;31429;42.674;23.350;2023-04-12T04:22:45;93864.44;;;10.20;100.00
23164;BME280;31429;42.674;23.350;2023-04-12T04:23:49;93872.25;;;10.17;100.00
23164;BME280;31429;42.674;23.350;2023-04-12T04:24:51;93881.00;;;10.11;100.00
23164;BME280;31429;42.674;23.350;2023-04-12T04:25:51;93872.38;;;9.97;100.00
23164;BME280;31429;42.674;23.350;2023-04-12T04:26:53;93879.53;;;10.07;100.00
23164;BME280;31429;42.674;23.350;2023-04-12T04:27:53;93884.63;;;10.07;100.00
23164;BME280;31429;42.674;23.350;2023-04-12T04:28:54;93879.53;;;10.24;100.00
23164;BME280;31429;42.674;23.350;2023-04-12T04:29:55;93876.81;;;10.27;100.00
23164;BME280;31429;42.674;23.350;2023-04-12T04:30:59;93878.16;;;10.00;100.00
23164;BME280;31429;42.674;23.350;2023-04-12T04:32:03;93883.44;;;10.14;100.00
23164;BME280;31429;42.674;23.350;2023-04-12T04:33:05;93885.69;;;10.20;100.00
23164;BME280;31429;42.674;23.350;2023-04-12T04:34:06;93883.38;;;10.16;100.00
23164;BME280;31429;42.674;23.350;2023-04-12T04:35:08;93884.00;;;10.02;100.00
23164;BME280;31429;42.674;23.350;2023-04-12T04:36:09;93891.22;;;10.11;100.00
23164;BME280;31429;42.674;23.350;2023-04-12T04:37:10;93889.44;;;10.30;100.00
23164;BME280;31429;42.674;23.350;2023-04-12T04:38:11;93895.75;;;10.23;100.00
23164;BME280;31429;42.674;23.350;2023-04-12T04:39:12;93884.63;;;10.07;100.00
23164;BME280;31429;42.674;23.350;2023-04-12T04:40:13;93882.16;;;10.23;100.00
23164;BME280;31429;42.674;23.350;2023-04-12T04:41:14;93881.63;;;10.16;100.00
23164;BME280;31429;42.674;23.350;2023-04-12T04:42:16;93883.16;;;10.20;100.00
23164;BME280;31429;42.674;23.350;2023-04-12T04:43:17;93893.75;;;10.30;100.00
23164;BME280;31429;42.674;23.350;2023-04-12T04:44:18;93884.00;;;10.36;100.00
23164;BME280;31429;42.674;23.350;2023-04-12T04:45:18;93891.25;;;10.28;100.00
23164;BME280;31429;42.674;23.350;2023-04-12T04:46:21;93898.13;;;10.44;100.00
23164;BME280;31429;42.674;23.350;2023-04-12T04:47:21;93885.16;;;10.31;100.00
23164;BME280;31429;42.674;23.350;2023-04-12T04:48:25;93899.19;;;10.39;100.00
23164;BME280;31429;42.674;23.350;2023-04-12T04:49:26;93894.22;;;10.02;100.00
23164;BME280;31429;42.674;23.350;2023-04-12T04:50:27;93893.09;;;9.91;100.00
23164;BME280;31429;42.674;23.350;2023-04-12T04:51:27;93888.47;;;9.81;100.00
23164;BME280;31429;42.674;23.350;2023-04-12T04:52:28;93901.16;;;10.17;100.00
23164;BME280;31429;42.674;23.350;2023-04-12T04:53:29;93892.94;;;10.11;100.00
23164;BME280;31429;42.674;23.350;2023-04-12T04:54:29;93898.00;;;10.29;100.00
23164;BME280;31429;42.674;23.350;2023-04-12T04:55:32;93898.72;;;10.16;100.00
23164;BME280;31429;42.674;23.350;2023-04-12T04:56:33;93900.72;;;10.26;100.00
23164;BME280;31429;42.674;23.350;2023-04-12T04:57:34;93898.16;;;10.09;100.00
23164;BME280;31429;42.674;23.350;2023-04-12T04:58:34;93901.09;;;10.02;100.00
23164;BME280;31429;42.674;23.350;2023-04-12T04:59:35;93903.81;;;10.16;100.00
23164;BME280;31429;42.674;23.350;2023-04-12T05:00:36;93905.50;;;10.50;100.00
23164;BME280;31429;42.674;23.350;2023-04-12T05:01:38;93905.75;;;10.28;100.00
23164;BME280;31429;42.674;23.350;2023-04-12T05:02:40;93910.41;;;10.20;100.00
23164;BME280;31429;42.674;23.350;2023-04-12T05:03:46;93907.09;;;10.01;100.00
23164;BME280;31429;42.674;23.350;2023-04-12T05:04:49;93910.50;;;10.18;100.00
23164;BME280;31429;42.674;23.350;2023-04-12T05:05:50;93909.84;;;10.48;100.00
23164;BME280;31429;42.674;23.350;2023-04-12T05:06:51;93908.69;;;10.20;100.00
23164;BME280;31429;42.674;23.350;2023-04-12T05:07:53;93909.56;;;10.19;100.00
23164;BME280;31429;42.674;23.350;2023-04-12T05:08:54;93916.59;;;10.16;100.00
23164;BME280;31429;42.674;23.350;2023-04-12T05:09:55;93914.81;;;10.33;100.00
23164;BME280;31429;42.674;23.350;2023-04-12T05:10:56;93912.50;;;10.12;100.00
23164;BME280;31429;42.674;23.350;2023-04-12T05:11:57;93910.19;;;10.24;100.00
23164;BME280;31429;42.674;23.350;2023-04-12T05:12:58;93923.91;;;10.39;100.00
23164;BME280;31429;42.674;23.350;2023-04-12T05:13:58;93913.31;;;10.12;100.00
23164;BME280;31429;42.674;23.350;2023-04-12T05:14:59;93922.41;;;9.83;100.00
23164;BME280;31429;42.674;23.350;2023-04-12T05:16:04;93916.75;;;9.77;100.00
23164;BME280;31429;42.674;23.350;2023-04-12T05:17:05;93920.97;;;9.95;100.00
23164;BME280;31429;42.674;23.350;2023-04-12T05:18:06;93915.34;;;9.89;100.00
23164;BME280;31429;42.674;23.350;2023-04-12T05:19:08;93919.03;;;10.34;100.00
23164;BME280;31429;42.674;23.350;2023-04-12T05:20:09;93916.31;;;10.55;100.00
23164;BME280;31429;42.674;23.350;2023-04-12T05:21:10;93928.84;;;10.59;100.00